Galesburg, IL

11:32 AM CDT on April 25, 2015 (GMT -0500)
Macomb Municipal | | Change Station
CLOSE
Current Station
Airport
Location: Macomb,
Elevation: 709 ft
Nearby Weather Stations

Elev 709 ft 40.52 °N, 90.65 °W | Updated 17 minutes ago

Rain
Rain
48 °F
Feels Like 48 °F
N
13
Wind Variable Wind from ESE
Gusts 18 mph

Today
High -- | Low -- °F
--% Chance of Precip.
Yesterday
High -- | Low -- °F
Precip. -- in
6:08 AM 7:51 PM
Waxing Crescent, 47% visible
Pressure 29.61 in
Visibility 7.0 miles
Clouds Overcast 400 ft
Dew Point 48 °F
Humidity 99%
Rainfall 1.64 in
Snow Depth Not available.
UV 3 out of 12
Pollen 9.30 out of 12
Air Quality Not available.
Flu Activity Regional
METAR KMQB 251615Z AUTO 11011G16KT 7SM OVC004 09/09 A2961 RMK AO2 T00880086

More Conditions Fewer Conditions

Pressure 29.61 in
Visibility 7.0 miles
Clouds Overcast 400 ft
Dew Point 48 °F
Humidity 99%
Rainfall 1.64 in
Snow Depth Not available.
UV 3 out of 12
Pollen 9.30 out of 12
Air Quality Not available.
Flu Activity Regional
METAR KMQB 251615Z AUTO 11011G16KT 7SM OVC004 09/09 A2961 RMK AO2 T00880086

More Conditions Fewer Conditions

10-Day Weather Forecast

Almanac

Astronomy

Apr. 25, 2015 Rise Set
Actual Time
Civil Twilight
Nautical Twilight
Astronomical Twilight
Moon
Length of Visible Light
Length of Day
Tomorrow will be .
, % of the Moon is Illuminated

Today's Extremes

State Highs State Lows

Community

WunderPhotos

Upload Photos

1,816,735 photos uploaded!

WunderBlogs® & News

Nearby

Air Quality

  Air Quality AQ Index Pollutant
Not available.

Snow Depth

Station Depth Elevation

Earthquake Activity

City Distance Mag. Time & Date
Minimum magnitude displayed is 2.5.

Coastal Water Temperatures

Place Temperature

Stations

Nearby Weather Stations

Station Location Temp. Windchill Dew Point Humidity Wind Precip. Elev Updated Type